createdAt,value
2023-03-02T06:19:32.710Z,0.00
2023-03-02T06:29:32.885Z,0.00
2023-03-02T06:39:32.853Z,0.00
2023-03-02T06:49:32.938Z,0.00
2023-03-02T06:59:32.744Z,0.00
2023-03-02T07:09:32.848Z,0.00
2023-03-02T07:19:32.710Z,0.00
2023-03-02T07:29:32.799Z,0.00
2023-03-02T07:39:32.818Z,0.00
2023-03-02T07:49:32.997Z,0.00
2023-03-02T07:59:32.861Z,0.00
2023-03-02T08:09:33.028Z,0.00
2023-03-02T08:19:32.880Z,0.00
2023-03-02T08:29:32.949Z,0.00
2023-03-02T08:39:33.028Z,0.00
2023-03-02T08:49:32.930Z,0.00
2023-03-02T08:59:32.960Z,0.00
2023-03-02T09:09:33.023Z,0.00
2023-03-02T09:19:33.036Z,0.00
2023-03-02T09:29:32.929Z,0.00
2023-03-02T09:39:33.006Z,0.00
2023-03-02T09:49:32.961Z,0.00
2023-03-02T09:59:33.016Z,0.00
2023-03-02T10:09:33.085Z,0.00
2023-03-02T10:19:32.932Z,0.00
2023-03-02T10:29:33.119Z,0.00
2023-03-02T10:39:33.077Z,0.00
2023-03-02T10:49:32.929Z,0.00
2023-03-02T10:59:32.965Z,2.81
2023-03-02T11:09:33.109Z,5.28
2023-03-02T11:19:32.918Z,6.56
2023-03-02T11:29:33.064Z,6.43
2023-03-02T11:39:33.155Z,9.39
2023-03-02T11:49:32.828Z,4.36
2023-03-02T11:59:33.052Z,5.49
2023-03-02T12:09:33.283Z,2.87
2023-03-02T12:19:33.004Z,4.38
2023-03-02T12:29:32.859Z,8.56
2023-03-02T12:39:32.923Z,11.82
2023-03-02T12:49:33.097Z,11.30
2023-03-02T12:59:33.052Z,11.26
2023-03-02T13:09:32.922Z,11.24
2023-03-02T13:19:33.208Z,9.87
2023-03-02T13:29:32.909Z,11.20
2023-03-02T13:39:33.062Z,11.95
2023-03-02T13:49:32.933Z,14.46
2023-03-02T13:59:33.128Z,11.17
2023-03-02T14:09:33.043Z,12.11
2023-03-02T14:19:33.048Z,12.84
2023-03-02T14:29:33.124Z,14.22
2023-03-02T14:39:33.256Z,14.51
2023-03-02T14:49:33.136Z,15.13
2023-03-02T14:59:33.115Z,14.55
2023-03-02T15:09:33.358Z,12.81
2023-03-02T15:19:33.017Z,12.10
2023-03-02T15:29:33.288Z,13.58
2023-03-02T15:39:33.163Z,11.90
2023-03-02T15:49:33.127Z,12.21
2023-03-02T15:59:33.154Z,12.12
2023-03-02T16:09:33.151Z,11.46
2023-03-02T16:19:33.219Z,10.36
2023-03-02T16:29:33.287Z,8.34
2023-03-02T16:39:33.380Z,8.41
2023-03-02T16:49:33.214Z,6.18
2023-03-02T16:59:33.174Z,6.80
2023-03-02T17:09:33.349Z,11.82
2023-03-02T17:19:33.206Z,13.48
2023-03-02T17:29:33.389Z,13.96
2023-03-02T17:39:33.432Z,10.95
2023-03-02T17:49:33.294Z,11.65
2023-03-02T17:59:33.146Z,9.88
2023-03-02T18:09:33.209Z,10.87
2023-03-02T18:19:33.227Z,8.84
2023-03-02T18:29:33.308Z,9.52
2023-03-02T18:39:33.134Z,11.50
2023-03-02T18:49:33.240Z,10.91
2023-03-02T18:59:33.429Z,10.58
2023-03-02T19:09:33.500Z,11.36
2023-03-02T19:19:33.700Z,9.52
